H201 — WDJ4540 — position and weather

sailwx.info

Track history (hours):
 
Tides and Currents Weather Stations Pressure Air Temp Water Temp Dewpoint Dewpoint Depression Visibility Wind Speed Wind Dir Waves Ship Positions

H201

Owner: HNY Ferry Fleet, New York, NY. More information available from US FCC via Universal Licensing System and Coast Guard Vessel Documentation Center.

Last reported at 2018-Jan-18 12:01 UTC. Time now 2018-Jan-18 12:06 UTC.
Position N 40°43' W 073°58'.

Length 26 m; draft 1.9 m.

Type: Passenger vessel. MMSI: 367778670.

Date/timePositionNaut miles runAvg speedWind from/ knotsBaromVisibWave heightAir tempDewpointWater temp
2018-Jan-18 12:01N 40°43' W 073°58'3 3.8
2018-Jan-18 11:14N 40°46' W 073°57'416.6
2018-Jan-18 11:00N 40°42' W 073°58'0 0.0
2018-Jan-18 10:30N 40°42' W 073°58'0 0.0
2018-Jan-18 10:00N 40°42' W 073°58'0 0.0
2018-Jan-18 09:30N 40°42' W 073°58'0 0.0
2018-Jan-18 09:00N 40°42' W 073°58'0 0.0
2018-Jan-18 08:30N 40°42' W 073°58'0 0.0
2018-Jan-18 04:06N 40°42' W 073°58'0 0.1
2018-Jan-18 04:01N 40°42' W 073°58'4 8.6
2018-Jan-18 03:30N 40°46' W 073°56'2 5.0
2018-Jan-18 03:01N 40°44' W 073°58'1 1.3
2018-Jan-18 02:30N 40°45' W 073°58'2 4.4
2018-Jan-18 02:00N 40°46' W 073°56'2 3.5
2018-Jan-18 01:30N 40°45' W 073°57'2 5.0
2018-Jan-18 01:01N 40°43' W 073°59'3 3.2
2018-Jan-18 00:00N 40°46' W 073°57'0 3.4
2018-Jan-17 23:58N 40°45' W 073°57'  
2018-Jan-12 15:01N 40°43' W 073°58'1 1.2
2018-Jan-12 14:30N 40°44' W 073°58'3 5.1
2018-Jan-12 14:01N 40°42' W 074°00'3 5.1
2018-Jan-12 13:31N 40°44' W 073°58'0 0.2
2018-Jan-12 13:01N 40°44' W 073°58'2 5.0
2018-Jan-12 12:31N 40°42' W 074°00'2 4.3
2018-Jan-12 12:00N 40°43' W 073°58'1 1.6
2018-Jan-12 11:31N 40°44' W 073°58'2 4.2
2018-Jan-12 11:00N 40°42' W 073°58'0 0.0
2018-Jan-12 04:18N 40°42' W 073°58'0 0.8
2018-Jan-12 04:00N 40°42' W 073°58'3 6.3
2018-Jan-12 03:30N 40°45' W 073°58'1 2.0
2018-Jan-12 03:00N 40°44' W 073°58'1 1.3
2018-Jan-12 02:31N 40°44' W 073°58'2 2.0
2018-Jan-12 01:41N 40°45' W 073°57'1 3.2
2018-Jan-12 01:30N 40°45' W 073°57'3 5.7
2018-Jan-12 01:00N 40°42' W 073°59'4 3.6
2018-Jan-12 00:01N 40°46' W 073°57'012.9
2018-Jan-12 00:00N 40°45' W 073°57'4 7.7
2018-Jan-11 23:30N 40°42' W 073°60'3 6.3
2018-Jan-11 22:59N 40°45' W 073°57'1 0.8
2018-Jan-11 22:17N 40°45' W 073°57'1 4.7
2018-Jan-11 22:01N 40°44' W 073°58'0 0.8
2018-Jan-11 21:30N 40°45' W 073°58'1 1.8
2018-Jan-11 20:46N 40°46' W 073°57'2 5.2
2018-Jan-11 20:28N 40°45' W 073°58'2 5.1
2018-Jan-11 20:00N 40°42' W 073°60'1 2.1
2018-Jan-11 19:30N 40°42' W 073°58'0 0.3
2018-Jan-11 19:01N 40°42' W 073°58'2 3.3
2018-Jan-11 18:30N 40°44' W 073°58'1 1.1
2018-Jan-11 18:00N 40°43' W 073°58'1 1.1
2018-Jan-11 17:30N 40°44' W 073°58'2 1.9
2018-Jan-11 16:41N 40°45' W 073°57'0 2.5
2018-Jan-11 16:30N 40°45' W 073°58'2 3.8
2018-Jan-11 16:01N 40°43' W 073°58'1 2.8
2018-Jan-11 15:30N 40°42' W 073°60'4 5.2
2018-Jan-11 14:49N 40°45' W 073°57'1 4.0
2018-Jan-11 14:30N 40°44' W 073°58'0 0.3
2018-Jan-11 13:57N 40°45' W 073°58'1 1.5
2018-Jan-11 13:09N 40°45' W 073°57'0 3.3
2018-Jan-11 13:01N 40°45' W 073°57'4 7.3
2018-Jan-11 12:31N 40°42' W 074°00'4 6.4
2018-Jan-11 11:51N 40°46' W 073°57'410.7
2018-Jan-11 11:30N 40°42' W 073°58'1 0.1
2018-Jan-10 23:51N 40°42' W 073°59'2 6.7
2018-Jan-10 23:30N 40°45' W 073°58'1 1.4
2018-Jan-10 22:44N 40°45' W 073°57'1 3.0
2018-Jan-10 22:30N 40°45' W 073°58'3 5.9
2018-Jan-10 22:00N 40°42' W 073°60'1 2.3
2018-Jan-10 21:30N 40°42' W 073°58'0 0.0
2018-Jan-10 21:00N 40°42' W 073°58'0 0.0
2018-Jan-10 20:30N 40°42' W 073°58'0 0.0
2018-Jan-10 20:00N 40°42' W 073°58'0 0.4
2018-Jan-10 19:30N 40°42' W 073°58'1 1.9
2018-Jan-10 19:00N 40°42' W 073°60'0 0.8
2018-Jan-10 18:31N 40°42' W 074°00'0 0.5
2018-Jan-10 18:00N 40°42' W 074°00'2 3.1
2018-Jan-10 17:30N 40°42' W 073°58'0 0.0
2018-Jan-10 17:00N 40°42' W 073°58'0 0.0
2018-Jan-10 16:30N 40°42' W 073°58'0 0.0
2018-Jan-10 16:00N 40°42' W 073°58'0 0.0
2018-Jan-10 15:30N 40°42' W 073°58'0 0.0
2018-Jan-10 15:00N 40°42' W 073°58'1 1.9
2018-Jan-10 14:31N 40°43' W 073°58'2 2.5
2018-Jan-10 13:34N 40°45' W 073°57'0 1.0
2018-Jan-10 13:29N 40°45' W 073°57'4 8.2
2018-Jan-10 13:00N 40°42' W 074°00'4 7.9
2018-Jan-10 12:30N 40°45' W 073°57'3 7.0
2018-Jan-10 12:00N 40°42' W 073°58'0 0.0
2018-Jan-10 00:00N 40°42' W 073°58'3 5.1
2018-Jan-09 23:30N 40°45' W 073°58'1 1.6
2018-Jan-09 22:45N 40°45' W 073°57'1 4.2
2018-Jan-09 22:30N 40°45' W 073°58'2 4.8
2018-Jan-09 22:01N 40°42' W 073°59'1 1.2
2018-Jan-09 21:30N 40°42' W 073°58'0 0.0
2018-Jan-09 21:00N 40°42' W 073°58'0 0.0
2018-Jan-09 20:30N 40°42' W 073°58'0 0.0
2018-Jan-09 20:00N 40°42' W 073°58'0 0.0
2018-Jan-09 19:30N 40°42' W 073°58'0 0.0
2018-Jan-09 19:00N 40°42' W 073°58'0 0.0
2018-Jan-09 18:30N 40°42' W 073°58'0 0.0
2018-Jan-09 18:00N 40°42' W 073°58'0 0.0
2018-Jan-09 17:30N 40°42' W 073°58'0 0.4
2018-Jan-09 17:00N 40°42' W 073°58'2 4.7
2018-Jan-09 16:30N 40°45' W 073°58'1 1.3
2018-Jan-09 15:36N 40°45' W 073°57'1 6.0
2018-Jan-09 15:31N 40°45' W 073°57'3 6.6
2018-Jan-09 15:01N 40°42' W 074°00'3 3.5
2018-Jan-09 14:10N 40°45' W 073°58'1 3.4
2018-Jan-09 13:58N 40°44' W 073°58'2 4.3
2018-Jan-09 13:30N 40°42' W 073°58'1 3.0
2018-Jan-09 13:01N 40°42' W 074°00'4 7.1
2018-Jan-09 12:31N 40°38' W 074°02'5 9.4
2018-Jan-09 12:00N 40°42' W 073°58'0 0.0
2018-Jan-09 11:30N 40°42' W 073°58'0 0.0
2018-Jan-09 10:57N 40°42' W 073°58'0 0.0
2018-Jan-09 10:30N 40°42' W 073°58'0 0.0
2018-Jan-08 23:24N 40°42' W 073°58'0 0.0
2018-Jan-08 22:57N 40°42' W 073°58'0 0.0
2018-Jan-08 22:00N 40°42' W 073°58'0 0.0
2018-Jan-08 21:03N 40°42' W 073°58'0 0.0
2018-Jan-08 20:49N 40°42' W 073°58'0 0.0
2018-Jan-08 20:18N 40°42' W 073°58'0 0.0
2018-Jan-08 19:51N 40°42' W 073°58'0 0.6
2018-Jan-08 19:15N 40°42' W 073°59'1 5.3
2018-Jan-08 19:00N 40°42' W 074°00'3 2.4
2018-Jan-08 17:36N 40°45' W 073°58'2 8.1
2018-Jan-08 17:21N 40°43' W 073°58'1 2.5
2018-Jan-08 17:00N 40°44' W 073°58'0 0.1
2018-Jan-08 15:45N 40°44' W 073°58'2 8.8
2018-Jan-08 15:31N 40°42' W 073°60'3 2.3
2018-Jan-08 14:12N 40°45' W 073°58'314.2
2018-Jan-08 14:00N 40°42' W 073°59'3 2.5
2018-Jan-08 12:38N 40°45' W 073°57'2 8.4
2018-Jan-08 12:24N 40°43' W 073°58'  
Track history (hours):
 
Tides and Currents Weather Stations Pressure Air Temp Water Temp Dewpoint Dewpoint Depression Visibility Wind Speed Wind Dir Waves Ship Positions

H201

Owner: HNY Ferry Fleet, New York, NY. More information available from US FCC via Universal Licensing System and Coast Guard Vessel Documentation Center.

Last reported at 2018-Jan-18 12:01 UTC. Time now 2018-Jan-18 12:06 UTC.
Position N 40°43' W 073°58'.

Length 26 m; draft 1.9 m.

Type: Passenger vessel. MMSI: 367778670.

Date/timePositionNaut miles runAvg speedWind from/ knotsBaromVisibWave heightAir tempDewpointWater temp
2018-Jan-18 12:01N 40°43' W 073°58'3 3.8
2018-Jan-18 11:14N 40°46' W 073°57'416.6
2018-Jan-18 11:00N 40°42' W 073°58'0 0.0
2018-Jan-18 10:30N 40°42' W 073°58'0 0.0
2018-Jan-18 10:00N 40°42' W 073°58'0 0.0
2018-Jan-18 09:30N 40°42' W 073°58'0 0.0
2018-Jan-18 09:00N 40°42' W 073°58'0 0.0
2018-Jan-18 08:30N 40°42' W 073°58'0 0.0
2018-Jan-18 04:06N 40°42' W 073°58'0 0.1
2018-Jan-18 04:01N 40°42' W 073°58'4 8.6
2018-Jan-18 03:30N 40°46' W 073°56'2 5.0
2018-Jan-18 03:01N 40°44' W 073°58'1 1.3
2018-Jan-18 02:30N 40°45' W 073°58'2 4.4
2018-Jan-18 02:00N 40°46' W 073°56'2 3.5
2018-Jan-18 01:30N 40°45' W 073°57'2 5.0
2018-Jan-18 01:01N 40°43' W 073°59'3 3.2
2018-Jan-18 00:00N 40°46' W 073°57'0 3.4
2018-Jan-17 23:58N 40°45' W 073°57'  
2018-Jan-12 15:01N 40°43' W 073°58'1 1.2
2018-Jan-12 14:30N 40°44' W 073°58'3 5.1
2018-Jan-12 14:01N 40°42' W 074°00'3 5.1
2018-Jan-12 13:31N 40°44' W 073°58'0 0.2
2018-Jan-12 13:01N 40°44' W 073°58'2 5.0
2018-Jan-12 12:31N 40°42' W 074°00'2 4.3
2018-Jan-12 12:00N 40°43' W 073°58'1 1.6
2018-Jan-12 11:31N 40°44' W 073°58'2 4.2
2018-Jan-12 11:00N 40°42' W 073°58'0 0.0
2018-Jan-12 04:18N 40°42' W 073°58'0 0.8
2018-Jan-12 04:00N 40°42' W 073°58'3 6.3
2018-Jan-12 03:30N 40°45' W 073°58'1 2.0
2018-Jan-12 03:00N 40°44' W 073°58'1 1.3
2018-Jan-12 02:31N 40°44' W 073°58'2 2.0
2018-Jan-12 01:41N 40°45' W 073°57'1 3.2
2018-Jan-12 01:30N 40°45' W 073°57'3 5.7
2018-Jan-12 01:00N 40°42' W 073°59'4 3.6
2018-Jan-12 00:01N 40°46' W 073°57'012.9
2018-Jan-12 00:00N 40°45' W 073°57'4 7.7
2018-Jan-11 23:30N 40°42' W 073°60'3 6.3
2018-Jan-11 22:59N 40°45' W 073°57'1 0.8
2018-Jan-11 22:17N 40°45' W 073°57'1 4.7
2018-Jan-11 22:01N 40°44' W 073°58'0 0.8
2018-Jan-11 21:30N 40°45' W 073°58'1 1.8
2018-Jan-11 20:46N 40°46' W 073°57'2 5.2
2018-Jan-11 20:28N 40°45' W 073°58'2 5.1
2018-Jan-11 20:00N 40°42' W 073°60'1 2.1
2018-Jan-11 19:30N 40°42' W 073°58'0 0.3
2018-Jan-11 19:01N 40°42' W 073°58'2 3.3
2018-Jan-11 18:30N 40°44' W 073°58'1 1.1
2018-Jan-11 18:00N 40°43' W 073°58'1 1.1
2018-Jan-11 17:30N 40°44' W 073°58'2 1.9
2018-Jan-11 16:41N 40°45' W 073°57'0 2.5
2018-Jan-11 16:30N 40°45' W 073°58'2 3.8
2018-Jan-11 16:01N 40°43' W 073°58'1 2.8
2018-Jan-11 15:30N 40°42' W 073°60'4 5.2
2018-Jan-11 14:49N 40°45' W 073°57'1 4.0
2018-Jan-11 14:30N 40°44' W 073°58'0 0.3
2018-Jan-11 13:57N 40°45' W 073°58'1 1.5
2018-Jan-11 13:09N 40°45' W 073°57'0 3.3
2018-Jan-11 13:01N 40°45' W 073°57'4 7.3
2018-Jan-11 12:31N 40°42' W 074°00'4 6.4
2018-Jan-11 11:51N 40°46' W 073°57'410.7
2018-Jan-11 11:30N 40°42' W 073°58'1 0.1
2018-Jan-10 23:51N 40°42' W 073°59'2 6.7
2018-Jan-10 23:30N 40°45' W 073°58'1 1.4
2018-Jan-10 22:44N 40°45' W 073°57'1 3.0
2018-Jan-10 22:30N 40°45' W 073°58'3 5.9
2018-Jan-10 22:00N 40°42' W 073°60'1 2.3
2018-Jan-10 21:30N 40°42' W 073°58'0 0.0
2018-Jan-10 21:00N 40°42' W 073°58'0 0.0
2018-Jan-10 20:30N 40°42' W 073°58'0 0.0
2018-Jan-10 20:00N 40°42' W 073°58'0 0.4
2018-Jan-10 19:30N 40°42' W 073°58'1 1.9
2018-Jan-10 19:00N 40°42' W 073°60'0 0.8
2018-Jan-10 18:31N 40°42' W 074°00'0 0.5
2018-Jan-10 18:00N 40°42' W 074°00'2 3.1
2018-Jan-10 17:30N 40°42' W 073°58'0 0.0
2018-Jan-10 17:00N 40°42' W 073°58'0 0.0
2018-Jan-10 16:30N 40°42' W 073°58'0 0.0
2018-Jan-10 16:00N 40°42' W 073°58'0 0.0
2018-Jan-10 15:30N 40°42' W 073°58'0 0.0
2018-Jan-10 15:00N 40°42' W 073°58'1 1.9
2018-Jan-10 14:31N 40°43' W 073°58'2 2.5
2018-Jan-10 13:34N 40°45' W 073°57'0 1.0
2018-Jan-10 13:29N 40°45' W 073°57'4 8.2
2018-Jan-10 13:00N 40°42' W 074°00'4 7.9
2018-Jan-10 12:30N 40°45' W 073°57'3 7.0
2018-Jan-10 12:00N 40°42' W 073°58'0 0.0
2018-Jan-10 00:00N 40°42' W 073°58'3 5.1
2018-Jan-09 23:30N 40°45' W 073°58'1 1.6
2018-Jan-09 22:45N 40°45' W 073°57'1 4.2
2018-Jan-09 22:30N 40°45' W 073°58'2 4.8
2018-Jan-09 22:01N 40°42' W 073°59'1 1.2
2018-Jan-09 21:30N 40°42' W 073°58'0 0.0
2018-Jan-09 21:00N 40°42' W 073°58'0 0.0
2018-Jan-09 20:30N 40°42' W 073°58'0 0.0
2018-Jan-09 20:00N 40°42' W 073°58'0 0.0
2018-Jan-09 19:30N 40°42' W 073°58'0 0.0
2018-Jan-09 19:00N 40°42' W 073°58'0 0.0
2018-Jan-09 18:30N 40°42' W 073°58'0 0.0
2018-Jan-09 18:00N 40°42' W 073°58'0 0.0
2018-Jan-09 17:30N 40°42' W 073°58'0 0.4
2018-Jan-09 17:00N 40°42' W 073°58'2 4.7
2018-Jan-09 16:30N 40°45' W 073°58'1 1.3
2018-Jan-09 15:36N 40°45' W 073°57'1 6.0
2018-Jan-09 15:31N 40°45' W 073°57'3 6.6
2018-Jan-09 15:01N 40°42' W 074°00'3 3.5
2018-Jan-09 14:10N 40°45' W 073°58'1 3.4
2018-Jan-09 13:58N 40°44' W 073°58'2 4.3
2018-Jan-09 13:30N 40°42' W 073°58'1 3.0
2018-Jan-09 13:01N 40°42' W 074°00'4 7.1
2018-Jan-09 12:31N 40°38' W 074°02'5 9.4
2018-Jan-09 12:00N 40°42' W 073°58'0 0.0
2018-Jan-09 11:30N 40°42' W 073°58'0 0.0
2018-Jan-09 10:57N 40°42' W 073°58'0 0.0
2018-Jan-09 10:30N 40°42' W 073°58'0 0.0
2018-Jan-08 23:24N 40°42' W 073°58'0 0.0
2018-Jan-08 22:57N 40°42' W 073°58'0 0.0
2018-Jan-08 22:00N 40°42' W 073°58'0 0.0
2018-Jan-08 21:03N 40°42' W 073°58'0 0.0
2018-Jan-08 20:49N 40°42' W 073°58'0 0.0
2018-Jan-08 20:18N 40°42' W 073°58'0 0.0
2018-Jan-08 19:51N 40°42' W 073°58'0 0.6
2018-Jan-08 19:15N 40°42' W 073°59'1 5.3
2018-Jan-08 19:00N 40°42' W 074°00'3 2.4
2018-Jan-08 17:36N 40°45' W 073°58'2 8.1
2018-Jan-08 17:21N 40°43' W 073°58'1 2.5
2018-Jan-08 17:00N 40°44' W 073°58'0 0.1
2018-Jan-08 15:45N 40°44' W 073°58'2 8.8
2018-Jan-08 15:31N 40°42' W 073°60'3 2.3
2018-Jan-08 14:12N 40°45' W 073°58'314.2
2018-Jan-08 14:00N 40°42' W 073°59'3 2.5
2018-Jan-08 12:38N 40°45' W 073°57'2 8.4
2018-Jan-08 12:24N 40°43' W 073°58'  

Dump ship's entire track history